EW2255 Weather Reports


Display with metric or nautical units.
time (UTC)temp
F
wind
direction
speed
MPH
gust
MPH
rain 1hr
in
rain 24hr
in
rain mn
in
humidity
%
barometer
mb
20260503040047 45 249 1.0 6.0 0.00 0.00 0.00 56 1008.3
20260503034533 41 161 0.0 5.0 0.00 0.00 0.00 69 1008.6
20260503033058 38 360 2.0 5.0 0.00 0.00 0.00 83 1008.8
20260503031539 38 252 1.0 3.0 0.00 0.00 0.00 83 1009.2
20260503030019 38 252 0.0 4.0 0.00 0.00 0.00 84 1009.4
20260503024509 38 244 3.0 5.0 0.00 0.00 0.00 83 1009.8
20260503023046 38 240 1.0 3.0 0.00 0.00 0.00 82 1009.7
20260503021531 38 236 0.0 3.0 0.00 0.00 0.00 83 1009.9
20260503020008 38 234 2.0 5.0 0.00 0.00 0.00 82 1010.1
20260503014615 39 360 2.0 5.0 0.00 0.00 0.00 78 1010.1
20260503013026 40 360 0.0 3.0 0.00 0.00 0.00 73 1010.2
20260503011513 43 360 1.0 3.0 0.00 0.00 0.00 66 1010.4
20260503010051 45 360 1.0 2.0 0.00 0.00 0.00 54 1010.4
20260503004531 47 360 0.0 2.0 0.00 0.00 0.00 50 1010.5
20260503003017 49 360 1.0 3.0 0.00 0.00 0.00 47 1010.6
20260503001601 52 90 1.0 5.0 0.00 0.00 0.00 40 1010.6
20260503001501 52 91 1.0 5.0 0.00 0.00 0.00 40 1010.7
20260503000043 54 42 0.0 3.0 0.00 0.00 0.00 38 1010.8
20260502234523 55 320 1.0 7.0 0.00 0.00 0.00 38 1010.8
20260502233008 57 36 0.0 3.0 0.00 0.00 0.00 30 1010.9
20260502231552 56 46 1.0 4.0 0.00 0.00 0.00 31 1011.0
20260502230031 56 309 2.0 4.0 0.00 0.00 0.00 30 1011.1
20260502224516 55 98 0.0 5.0 0.00 0.00 0.00 29 1011.1
20260502223051 55 29 1.0 6.0 0.00 0.00 0.00 29 1011.2
20260502221530 54 99 0.0 7.0 0.00 0.00 0.00 31 1011.5
20260502220013 55 54 1.0 4.0 0.00 0.00 0.00 30 1011.8
20260502214551 55 65 3.0 7.0 0.00 0.00 0.00 30 1011.8
20260502213033 54 112 2.0 7.0 0.00 0.00 0.00 32 1012.0
20260502211527 54 115 5.0 10.0 0.00 0.00 0.00 31 1012.3
20260502210002 55 355 2.0 5.0 0.00 0.00 0.00 31 1012.4
20260502204542 53 327 4.0 7.0 0.00 0.00 0.00 33 1012.5
20260502203027 54 9 0.0 8.0 0.00 0.00 0.00 33 1012.6
20260502201506 54 330 4.0 8.0 0.00 0.00 0.00 33 1012.7
20260502200056 54 71 3.0 9.0 0.00 0.00 0.00 31 1012.9
20260502194531 53 316 3.0 7.0 0.00 0.00 0.00 33 1013.1
20260502193012 50 286 5.0 7.0 0.00 0.00 0.00 40 1013.4
20260502191559 50 279 5.0 8.0 0.00 0.00 0.00 35 1013.7
20260502190034 49 284 5.0 9.0 0.00 0.00 0.00 39 1013.9
20260502184515 50 262 5.0 7.0 0.00 0.00 0.00 37 1014.1
20260502183054 50 254 2.0 5.0 0.00 0.00 0.00 41 1014.2
20260502181538 50 235 2.0 5.0 0.00 0.00 0.00 39 1014.3
20260502163010 48 239 2.0 5.0 0.00 0.00 0.00 42 1015.5
20260502161545 48 228 2.0 3.0 0.00 0.00 0.00 43 1015.7
20260502151526 43 252 1.0 2.0 0.00 0.00 0.00 51 1016.5
20260502123047 31 234 2.0 4.0 0.00 0.00 0.00 80 1017.9
20260502121526 30 199 1.0 2.0 0.00 0.00 0.00 79 1018.1
20260502114531 28 360 0.0 0.0 0.00 0.00 0.00 85 1018.1
20260502113018 27 360 0.0 0.0 0.00 0.00 0.00 85 1018.0
20260502111602 26 190 0.0 1.0 0.00 0.00 0.00 85 1018.0
20260502110047 26 190 0.0 2.0 0.00 0.00 0.00 84 1018.0
20260502104538 27 190 0.0 0.0 0.00 0.00 0.00 83 1017.9
20260502103005 27 190 0.0 2.0 0.00 0.00 0.00 82 1017.8
20260502101606 28 190 0.0 2.0 0.00 0.00 0.00 82 1017.8
20260502071528 26 78 1.0 2.0 0.00 0.00 0.00 88 1018.0
20260502070056 26 78 0.0 0.0 0.00 0.00 0.00 88 1018.2
20260502064544 26 78 0.0 2.0 0.00 0.00 0.00 87 1018.2
20260502063022 26 78 1.0 2.0 0.00 0.00 0.00 87 1018.3
20260502061510 26 78 1.0 2.0 0.00 0.00 0.00 86 1018.4
20260502060111 26 78 0.0 2.0 0.00 0.00 0.00 86 1018.5
20260502054536 27 78 0.0 2.0 0.00 0.00 0.00 85 1018.5
20260502053020 27 78 0.0 2.0 0.00 0.00 0.00 85 1018.6
20260502051601 27 78 0.0 1.0 0.00 0.00 0.00 85 1018.7
20260502050044 27 78 1.0 2.0 0.00 0.00 0.00 84 1018.8
20260502044524 27 78 1.0 2.0 0.00 0.00 0.00 84 1018.8
20260502043011 28 78 0.0 0.0 0.00 0.00 0.00 84 1018.8
20260502041556 28 78 0.0 2.0 0.00 0.00 0.00 83 1018.7